Decoded Metar for CYVC (LA RONGE in SK, CANADA) (IATA:YVC) | Meteo·Mobile Aviation Weather
aviador You're here:

CYVC Decoded Metar

LA RONGE in SK, CANADA
Report Time2020-01-29 20:00:00
UTC Time2020-01-29 20:15:59
Flight Rules lifr LIFR
Wind200° at 04 kt
W.Decomp.*RWY 18: 3.9 kt HW 0.7 kt RCW
RWY 11: 0.7 kt HW 3.9 kt RCW
Visibility402 m
Phenomena:Freezing Fog
Clouds:Overcast 002 Hf
Expected CloudBase > 400 ft AGL from Temp-Dew spread
Ceiling200 ft
Temp-6°C (ISA -19)
Dew Point-7°C (93% RH)
AAT-10.2°C
QNH1016 hPa
Density Alt-1,093 ft
Elevation1,243 ft
Report Wrong Elevation
Raw Report
CYVC 292000Z 20004KT 1/4SM FZFG OVC002 M06/M07 A3000 RMK ST8
SLP187=

Extra information for CYVC:More info

Metar Taf Metar & Taf Last 4 Metars F.Rules Stats Wind Profile Meteogram Temp Stats Airport Information Weather charts Add Link Nearby VenuesMetar ALERT Operation Metar Decoded Social comments